Terminal Aerodrome Forecast
Issued by NWS

Home | Current Version | Previous Version | Text Only | Print | Product List | Glossary On
Versions: 1 2 3 4 5 6 7 8 9 10 11 12
159
FTUS44 KCRP 241734
TAFALI
TAF
KALI 241734Z 2418/2518 18012KT P6SM SKC
     FM250200 18005KT P6SM SKC
     FM250900 VRB03KT 5SM BR SCT001 SCT250
      TEMPO 2510/2513 2SM BR BKN001
     FM251500 18005G15KT P6SM SCT250=

USA.gov is the U.S. government's official web portal to all federal, state and local government web resources and services.